Fairbanks, AK

12:45 AM AKST on December 20, 2014 (GMT -0900)
Esro | Change Station
CLOSE
Current Station
Personal Weather Station
Location: Fairbanks, AK
Elevation: 795 ft
Nearby Weather Stations

Elev 795 ft 64.92 °N, 147.47 °W | Updated 11 minutes ago

Clear
Clear
-8.7 °F
Feels Like -9 °F
N
0.0
Wind Variable Wind from NNE
Gusts 0.0 mph

Today
High -- | Low -- °F
--% Chance of Precip.
Yesterday
High -- | Low -- °F
Precip. -- in
11:00 AM 2:34 PM
Waning Crescent, 4% visible
Pressure 29.28 in
Visibility 10.0 miles
Clouds Clear
Windchill -9 °F
Dew Point -12 °F
Humidity 84%
Rainfall 0.00 in
Snow Depth Not available.
UV 0 out of 12
Pollen Not available.
Air Quality Not available.
Flu Activity Not available.
METAR PAFB 200856Z AUTO 00000KT 10SM CLR M23/M27 A2923 RMK SLP913 T12281267 58002 VIA AUTODIAL

More Conditions Fewer Conditions

Pressure 29.28 in
Visibility 10.0 miles
Clouds Clear
Windchill -9 °F
Dew Point -12 °F
Humidity 84%
Rainfall 0.00 in
Snow Depth Not available.
UV 0 out of 12
Pollen Not available.
Air Quality Not available.
Flu Activity Not available.
METAR PAFB 200856Z AUTO 00000KT 10SM CLR M23/M27 A2923 RMK SLP913 T12281267 58002 VIA AUTODIAL

More Conditions Fewer Conditions

10-Day Weather Forecast

Almanac

Astronomy

Dec. 20, 2014 Rise Set
Actual Time
Civil Twilight
Nautical Twilight
Astronomical Twilight
Moon
Length of Visible Light
Length of Day
Tomorrow will be .
, % of the Moon is Illuminated

Today's Extremes

State Highs State Lows

Community

WunderPhotos

Upload Photos

1,779,150 photos uploaded!

WunderBlogs® & News

Nearby

Air Quality

  Air Quality AQ Index Pollutant
Not available.

Snow Depth

Station Depth Elevation

Earthquake Activity

City Distance Mag. Time & Date
Minimum magnitude displayed is 2.5.

Coastal Water Temperatures

Place Temperature

Nearby Weather Stations